Terminal Aerodrome Forecast
Issued by NWS

Home | Current Version | Previous Version | Text Only | Print | Product List | Glossary On
Versions: 1 2 3 4 5 6 7 8 9 10 11 12 13 14 15 16
043
FTUS46 KHNX 120828 AAA
TAFMER
TAF AMD
KMER 120828Z 1208/1306 00000KT 1SM BR SCT010
      TEMPO 1208/1212 1/4SM FG VV002
     FM121200 06002KT 2SM BR BKN250
      TEMPO 1213/1217 1SM BR
     FM122100 32007KT 6SM HZ SCT200=

USA.gov is the U.S. government's official web portal to all federal, state and local government web resources and services.